sensor_id;sensor_type;location;lat;lon;timestamp;pressure;altitude;pressure_sealevel;temperature;humidity
31121;BME280;17770;45.966;13.632;2024-01-30T00:01:18;102531.22;;;13.90;58.66
31121;BME280;17770;45.966;13.632;2024-01-30T00:03:44;102532.94;;;13.89;58.45
31121;BME280;17770;45.966;13.632;2024-01-30T00:06:10;102527.78;;;13.88;58.31
31121;BME280;17770;45.966;13.632;2024-01-30T00:08:36;102534.69;;;13.87;58.37
31121;BME280;17770;45.966;13.632;2024-01-30T00:11:02;102533.81;;;13.87;58.57
31121;BME280;17770;45.966;13.632;2024-01-30T00:13:28;102534.69;;;13.86;58.68
31121;BME280;17770;45.966;13.632;2024-01-30T00:15:54;102537.31;;;13.86;58.53
31121;BME280;17770;45.966;13.632;2024-01-30T00:18:20;102539.91;;;13.84;58.22
31121;BME280;17770;45.966;13.632;2024-01-30T00:20:46;102533.84;;;13.85;58.57
31121;BME280;17770;45.966;13.632;2024-01-30T00:23:12;102531.25;;;13.85;58.48
31121;BME280;17770;45.966;13.632;2024-01-30T00:25:38;102539.91;;;13.86;58.12
31121;BME280;17770;45.966;13.632;2024-01-30T00:28:04;102534.75;;;13.83;58.38
31121;BME280;17770;45.966;13.632;2024-01-30T00:30:30;102530.41;;;13.82;58.38
31121;BME280;17770;45.966;13.632;2024-01-30T00:32:56;102533.00;;;13.82;58.45
31121;BME280;17770;45.966;13.632;2024-01-30T00:35:21;102532.16;;;13.81;58.31
31121;BME280;17770;45.966;13.632;2024-01-30T00:37:48;102525.22;;;13.80;58.44
31121;BME280;17770;45.966;13.632;2024-01-30T00:40:14;102531.28;;;13.81;57.93
31121;BME280;17770;45.966;13.632;2024-01-30T00:42:41;102531.28;;;13.82;58.03
31121;BME280;17770;45.966;13.632;2024-01-30T00:45:16;102521.78;;;13.81;58.39
31121;BME280;17770;45.966;13.632;2024-01-30T00:47:42;102524.38;;;13.80;58.74
31121;BME280;17770;45.966;13.632;2024-01-30T00:50:08;102524.38;;;13.80;58.45
31121;BME280;17770;45.966;13.632;2024-01-30T00:52:35;102520.06;;;13.79;58.44
31121;BME280;17770;45.966;13.632;2024-01-30T00:55:01;102520.94;;;13.79;58.38
31121;BME280;17770;45.966;13.632;2024-01-30T00:57:28;102523.53;;;13.79;58.46
31121;BME280;17770;45.966;13.632;2024-01-30T00:59:54;102515.78;;;13.76;57.99
31121;BME280;17770;45.966;13.632;2024-01-30T01:02:20;102519.19;;;13.77;58.53
31121;BME280;17770;45.966;13.632;2024-01-30T01:04:46;102520.97;;;13.76;58.08
31121;BME280;17770;45.966;13.632;2024-01-30T01:07:12;102520.06;;;13.77;58.24
31121;BME280;17770;45.966;13.632;2024-01-30T01:09:37;102515.75;;;13.78;58.30
31121;BME280;17770;45.966;13.632;2024-01-30T01:12:03;102511.44;;;13.75;58.17
31121;BME280;17770;45.966;13.632;2024-01-30T01:14:30;102514.91;;;13.74;58.14
31121;BME280;17770;45.966;13.632;2024-01-30T01:16:56;102514.03;;;13.74;58.33
31121;BME280;17770;45.966;13.632;2024-01-30T01:19:22;102517.50;;;13.74;58.17
31121;BME280;17770;45.966;13.632;2024-01-30T01:21:48;102510.63;;;13.73;58.02
31121;BME280;17770;45.966;13.632;2024-01-30T01:24:13;102507.16;;;13.73;58.49
31121;BME280;17770;45.966;13.632;2024-01-30T01:26:39;102501.97;;;13.73;58.21
31121;BME280;17770;45.966;13.632;2024-01-30T01:29:06;102503.72;;;13.71;58.25
31121;BME280;17770;45.966;13.632;2024-01-30T01:31:36;102496.78;;;13.71;58.42
31121;BME280;17770;45.966;13.632;2024-01-30T01:34:05;102493.34;;;13.71;58.49
31121;BME280;17770;45.966;13.632;2024-01-30T01:36:31;102500.25;;;13.70;58.36
31121;BME280;17770;45.966;13.632;2024-01-30T01:38:57;102494.22;;;13.70;58.19
31121;BME280;17770;45.966;13.632;2024-01-30T01:41:23;102495.06;;;13.70;58.35
31121;BME280;17770;45.966;13.632;2024-01-30T01:43:49;102488.16;;;13.69;58.03
31121;BME280;17770;45.966;13.632;2024-01-30T01:46:15;102483.88;;;13.68;58.01
31121;BME280;17770;45.966;13.632;2024-01-30T01:48:41;102486.47;;;13.68;58.12
31121;BME280;17770;45.966;13.632;2024-01-30T01:51:08;102480.41;;;13.68;58.14
31121;BME280;17770;45.966;13.632;2024-01-30T01:53:35;102482.13;;;13.67;58.34
31121;BME280;17770;45.966;13.632;2024-01-30T01:56:01;102478.66;;;13.67;58.31
31121;BME280;17770;45.966;13.632;2024-01-30T01:58:27;102475.22;;;13.66;57.72
31121;BME280;17770;45.966;13.632;2024-01-30T02:00:54;102483.84;;;13.67;58.20
31121;BME280;17770;45.966;13.632;2024-01-30T02:03:21;102481.25;;;13.65;57.95
31121;BME280;17770;45.966;13.632;2024-01-30T02:05:47;102476.09;;;13.65;57.96
31121;BME280;17770;45.966;13.632;2024-01-30T02:08:13;102478.69;;;13.65;58.38
31121;BME280;17770;45.966;13.632;2024-01-30T02:10:39;102468.31;;;13.64;58.15
31121;BME280;17770;45.966;13.632;2024-01-30T02:13:04;102476.97;;;13.64;58.26
31121;BME280;17770;45.966;13.632;2024-01-30T02:15:30;102473.50;;;13.64;58.33
31121;BME280;17770;45.966;13.632;2024-01-30T02:17:56;102472.66;;;13.63;58.40
31121;BME280;17770;45.966;13.632;2024-01-30T02:20:23;102467.47;;;13.63;58.21
31121;BME280;17770;45.966;13.632;2024-01-30T02:22:51;102472.69;;;13.62;58.02
31121;BME280;17770;45.966;13.632;2024-01-30T02:25:18;102475.28;;;13.62;58.33
31121;BME280;17770;45.966;13.632;2024-01-30T02:27:44;102476.13;;;13.61;58.01
31121;BME280;17770;45.966;13.632;2024-01-30T02:30:10;102478.72;;;13.61;58.23
31121;BME280;17770;45.966;13.632;2024-01-30T02:32:36;102475.28;;;13.59;58.18
31121;BME280;17770;45.966;13.632;2024-01-30T02:35:02;102477.88;;;13.59;58.03
31121;BME280;17770;45.966;13.632;2024-01-30T02:37:28;102476.16;;;13.58;58.27
31121;BME280;17770;45.966;13.632;2024-01-30T02:39:53;102474.44;;;13.57;58.36
31121;BME280;17770;45.966;13.632;2024-01-30T02:42:19;102471.84;;;13.57;58.17
31121;BME280;17770;45.966;13.632;2024-01-30T02:44:45;102465.81;;;13.56;58.20
31121;BME280;17770;45.966;13.632;2024-01-30T02:47:11;102470.09;;;13.57;57.89
31121;BME280;17770;45.966;13.632;2024-01-30T02:49:37;102471.84;;;13.55;58.58
31121;BME280;17770;45.966;13.632;2024-01-30T02:52:03;102470.13;;;13.56;57.85
31121;BME280;17770;45.966;13.632;2024-01-30T02:54:29;102459.75;;;13.54;57.91
31121;BME280;17770;45.966;13.632;2024-01-30T02:56:56;102467.53;;;13.54;58.26
31121;BME280;17770;45.966;13.632;2024-01-30T02:59:22;102463.25;;;13.53;58.47
31121;BME280;17770;45.966;13.632;2024-01-30T03:01:48;102460.66;;;13.53;57.96
31121;BME280;17770;45.966;13.632;2024-01-30T03:04:13;102469.28;;;13.52;57.94
31121;BME280;17770;45.966;13.632;2024-01-30T03:06:44;102460.66;;;13.53;57.85
31121;BME280;17770;45.966;13.632;2024-01-30T03:09:10;102457.19;;;13.51;57.61
31121;BME280;17770;45.966;13.632;2024-01-30T03:11:36;102452.03;;;13.51;58.40
31121;BME280;17770;45.966;13.632;2024-01-30T03:14:02;102463.25;;;13.52;58.34
31121;BME280;17770;45.966;13.632;2024-01-30T03:16:27;102461.53;;;13.49;58.22
31121;BME280;17770;45.966;13.632;2024-01-30T03:18:53;102458.94;;;13.49;58.20
31121;BME280;17770;45.966;13.632;2024-01-30T03:21:19;102456.34;;;13.48;58.54
31121;BME280;17770;45.966;13.632;2024-01-30T03:23:45;102465.84;;;13.49;58.12
31121;BME280;17770;45.966;13.632;2024-01-30T03:26:11;102455.47;;;13.49;58.13
31121;BME280;17770;45.966;13.632;2024-01-30T03:28:38;102463.25;;;13.49;58.24
31121;BME280;17770;45.966;13.632;2024-01-30T03:31:04;102453.78;;;13.48;58.15
31121;BME280;17770;45.966;13.632;2024-01-30T03:33:29;102455.50;;;13.47;57.73
31121;BME280;17770;45.966;13.632;2024-01-30T03:35:55;102456.38;;;13.46;58.19
31121;BME280;17770;45.966;13.632;2024-01-30T03:38:21;102452.91;;;13.46;57.83
31121;BME280;17770;45.966;13.632;2024-01-30T03:40:47;102455.50;;;13.46;57.64
31121;BME280;17770;45.966;13.632;2024-01-30T03:43:13;102452.06;;;13.45;58.29
31121;BME280;17770;45.966;13.632;2024-01-30T03:45:39;102453.81;;;13.45;58.22
31121;BME280;17770;45.966;13.632;2024-01-30T03:48:05;102451.22;;;13.43;58.40
31121;BME280;17770;45.966;13.632;2024-01-30T03:50:31;102456.38;;;13.45;57.90
31121;BME280;17770;45.966;13.632;2024-01-30T03:52:57;102455.53;;;13.43;58.00
31121;BME280;17770;45.966;13.632;2024-01-30T03:55:23;102452.06;;;13.42;58.49
31121;BME280;17770;45.966;13.632;2024-01-30T03:57:48;102454.66;;;13.42;57.64
31121;BME280;17770;45.966;13.632;2024-01-30T04:00:14;102443.47;;;13.42;58.00
31121;BME280;17770;45.966;13.632;2024-01-30T04:02:40;102446.06;;;13.42;58.18
31121;BME280;17770;45.966;13.632;2024-01-30T04:05:06;102453.81;;;13.42;57.82
31121;BME280;17770;45.966;13.632;2024-01-30T04:07:32;102446.06;;;13.42;58.00
31121;BME280;17770;45.966;13.632;2024-01-30T04:09:58;102447.78;;;13.41;58.04
31121;BME280;17770;45.966;13.632;2024-01-30T04:12:24;102442.63;;;13.38;57.77
31121;BME280;17770;45.966;13.632;2024-01-30T04:14:50;102447.81;;;13.38;58.21
31121;BME280;17770;45.966;13.632;2024-01-30T04:17:16;102446.94;;;13.38;57.85
31121;BME280;17770;45.966;13.632;2024-01-30T04:19:41;102447.81;;;13.37;57.90
31121;BME280;17770;45.966;13.632;2024-01-30T04:22:07;102440.88;;;13.37;57.71
31121;BME280;17770;45.966;13.632;2024-01-30T04:24:33;102443.47;;;13.37;57.94
31121;BME280;17770;45.966;13.632;2024-01-30T04:26:59;102443.47;;;13.37;57.40
31121;BME280;17770;45.966;13.632;2024-01-30T04:29:25;102440.88;;;13.37;58.04
31121;BME280;17770;45.966;13.632;2024-01-30T04:31:51;102449.53;;;13.36;58.33
31121;BME280;17770;45.966;13.632;2024-01-30T04:34:16;102451.25;;;13.36;58.03
31121;BME280;17770;45.966;13.632;2024-01-30T04:36:44;102439.19;;;13.35;58.17
31121;BME280;17770;45.966;13.632;2024-01-30T04:39:09;102440.91;;;13.34;58.46
31121;BME280;17770;45.966;13.632;2024-01-30T04:41:35;102441.78;;;13.35;57.94
31121;BME280;17770;45.966;13.632;2024-01-30T04:44:01;102428.84;;;13.33;57.95
31121;BME280;17770;45.966;13.632;2024-01-30T04:46:27;102437.47;;;13.34;58.09
31121;BME280;17770;45.966;13.632;2024-01-30T04:48:53;102439.19;;;13.33;58.30
31121;BME280;17770;45.966;13.632;2024-01-30T04:51:19;102439.19;;;13.33;58.32
31121;BME280;17770;45.966;13.632;2024-01-30T04:53:45;102436.59;;;13.33;57.86
31121;BME280;17770;45.966;13.632;2024-01-30T04:56:11;102447.81;;;13.32;58.21
31121;BME280;17770;45.966;13.632;2024-01-30T04:58:37;102446.13;;;13.31;58.15
31121;BME280;17770;45.966;13.632;2024-01-30T05:01:03;102448.72;;;13.31;58.14
31121;BME280;17770;45.966;13.632;2024-01-30T05:03:32;102452.19;;;13.30;58.13
31121;BME280;17770;45.966;13.632;2024-01-30T05:05:58;102453.91;;;13.31;58.04
31121;BME280;17770;45.966;13.632;2024-01-30T05:08:24;102457.38;;;13.30;57.90
31121;BME280;17770;45.966;13.632;2024-01-30T05:10:50;102465.13;;;13.30;57.95
31121;BME280;17770;45.966;13.632;2024-01-30T05:13:15;102466.00;;;13.29;58.12
31121;BME280;17770;45.966;13.632;2024-01-30T05:15:41;102459.09;;;13.28;57.72
31121;BME280;17770;45.966;13.632;2024-01-30T05:18:07;102457.38;;;13.30;58.09
31121;BME280;17770;45.966;13.632;2024-01-30T05:20:33;102453.03;;;13.29;57.91
31121;BME280;17770;45.966;13.632;2024-01-30T05:22:59;102456.50;;;13.28;58.14
31121;BME280;17770;45.966;13.632;2024-01-30T05:25:25;102455.66;;;13.26;57.72
31121;BME280;17770;45.966;13.632;2024-01-30T05:27:50;102461.69;;;13.28;57.77
31121;BME280;17770;45.966;13.632;2024-01-30T05:30:16;102457.34;;;13.27;57.89
31121;BME280;17770;45.966;13.632;2024-01-30T05:32:43;102457.38;;;13.26;57.73
31121;BME280;17770;45.966;13.632;2024-01-30T05:35:08;102455.66;;;13.25;58.23
31121;BME280;17770;45.966;13.632;2024-01-30T05:37:34;102456.53;;;13.25;58.10
31121;BME280;17770;45.966;13.632;2024-01-30T05:40:00;102461.72;;;13.25;58.03
31121;BME280;17770;45.966;13.632;2024-01-30T05:42:26;102456.56;;;13.24;57.55
31121;BME280;17770;45.966;13.632;2024-01-30T05:44:52;102463.44;;;13.23;57.62
31121;BME280;17770;45.966;13.632;2024-01-30T05:47:18;102467.75;;;13.24;57.88
31121;BME280;17770;45.966;13.632;2024-01-30T05:49:44;102465.19;;;13.21;58.21
31121;BME280;17770;45.966;13.632;2024-01-30T05:52:10;102472.94;;;13.24;57.94
31121;BME280;17770;45.966;13.632;2024-01-30T05:54:36;102459.13;;;13.21;57.67
31121;BME280;17770;45.966;13.632;2024-01-30T05:57:02;102462.59;;;13.20;57.54
31121;BME280;17770;45.966;13.632;2024-01-30T05:59:28;102468.66;;;13.20;57.85
31121;BME280;17770;45.966;13.632;2024-01-30T06:01:54;102473.84;;;13.20;57.52
31121;BME280;17770;45.966;13.632;2024-01-30T06:04:19;102477.28;;;13.19;58.00
31121;BME280;17770;45.966;13.632;2024-01-30T06:06:45;102474.69;;;13.18;57.91
31121;BME280;17770;45.966;13.632;2024-01-30T06:09:11;102476.44;;;13.19;57.39
31121;BME280;17770;45.966;13.632;2024-01-30T06:11:38;102467.81;;;13.17;57.68
31121;BME280;17770;45.966;13.632;2024-01-30T06:14:04;102469.53;;;13.18;57.94
31121;BME280;17770;45.966;13.632;2024-01-30T06:16:30;102479.88;;;13.18;58.22
31121;BME280;17770;45.966;13.632;2024-01-30T06:18:56;102481.63;;;13.17;57.96
31121;BME280;17770;45.966;13.632;2024-01-30T06:21:23;102482.50;;;13.16;58.18
31121;BME280;17770;45.966;13.632;2024-01-30T06:23:49;102481.63;;;13.17;57.56
31121;BME280;17770;45.966;13.632;2024-01-30T06:26:15;102482.50;;;13.16;57.43
31121;BME280;17770;45.966;13.632;2024-01-30T06:28:41;102485.97;;;13.15;57.26
31121;BME280;17770;45.966;13.632;2024-01-30T06:31:07;102480.78;;;13.15;57.98
31121;BME280;17770;45.966;13.632;2024-01-30T06:33:32;102494.56;;;13.14;57.68
31121;BME280;17770;45.966;13.632;2024-01-30T06:35:58;102501.50;;;13.14;57.86
31121;BME280;17770;45.966;13.632;2024-01-30T06:38:24;102498.91;;;13.15;58.32
31121;BME280;17770;45.966;13.632;2024-01-30T06:40:50;102498.06;;;13.13;57.51
31121;BME280;17770;45.966;13.632;2024-01-30T06:43:16;102504.94;;;13.13;57.31
31121;BME280;17770;45.966;13.632;2024-01-30T06:45:42;102507.53;;;13.13;57.47
31121;BME280;17770;45.966;13.632;2024-01-30T06:48:08;102505.81;;;13.13;57.95
31121;BME280;17770;45.966;13.632;2024-01-30T06:50:34;102509.28;;;13.14;57.90
31121;BME280;17770;45.966;13.632;2024-01-30T06:53:00;102509.28;;;13.12;57.42
31121;BME280;17770;45.966;13.632;2024-01-30T06:55:25;102511.00;;;13.12;57.50
31121;BME280;17770;45.966;13.632;2024-01-30T06:57:51;102507.56;;;13.11;58.09
31121;BME280;17770;45.966;13.632;2024-01-30T07:00:17;102510.16;;;13.11;58.05
31121;BME280;17770;45.966;13.632;2024-01-30T07:02:45;102506.69;;;13.09;58.25
31121;BME280;17770;45.966;13.632;2024-01-30T07:05:11;102517.06;;;13.11;57.58
31121;BME280;17770;45.966;13.632;2024-01-30T07:07:37;102511.91;;;13.11;57.62
31121;BME280;17770;45.966;13.632;2024-01-30T07:10:03;102506.69;;;13.09;57.82
31121;BME280;17770;45.966;13.632;2024-01-30T07:12:30;102513.63;;;13.10;57.93
31121;BME280;17770;45.966;13.632;2024-01-30T07:14:56;102511.88;;;13.09;57.92
31121;BME280;17770;45.966;13.632;2024-01-30T07:17:22;102522.25;;;13.09;57.50
31121;BME280;17770;45.966;13.632;2024-01-30T07:19:48;102523.97;;;13.10;58.09
31121;BME280;17770;45.966;13.632;2024-01-30T07:22:14;102519.66;;;13.09;57.65
31121;BME280;17770;45.966;13.632;2024-01-30T07:24:43;102524.81;;;13.09;57.28
31121;BME280;17770;45.966;13.632;2024-01-30T07:27:10;102529.19;;;13.07;57.79
31121;BME280;17770;45.966;13.632;2024-01-30T07:29:36;102528.28;;;13.09;57.36
31121;BME280;17770;45.966;13.632;2024-01-30T07:32:02;102530.00;;;13.09;57.59
31121;BME280;17770;45.966;13.632;2024-01-30T07:34:28;102529.19;;;13.07;57.75
31121;BME280;17770;45.966;13.632;2024-01-30T07:36:54;102529.19;;;13.07;57.33
31121;BME280;17770;45.966;13.632;2024-01-30T07:39:20;102527.44;;;13.07;57.65
31121;BME280;17770;45.966;13.632;2024-01-30T07:41:46;102533.47;;;13.08;57.73
31121;BME280;17770;45.966;13.632;2024-01-30T07:44:12;102534.38;;;13.07;57.63
31121;BME280;17770;45.966;13.632;2024-01-30T07:46:38;102536.06;;;13.06;57.86
31121;BME280;17770;45.966;13.632;2024-01-30T07:49:04;102540.38;;;13.06;57.80
31121;BME280;17770;45.966;13.632;2024-01-30T07:51:29;102531.75;;;13.04;57.52
31121;BME280;17770;45.966;13.632;2024-01-30T07:53:57;102534.38;;;13.05;57.40
31121;BME280;17770;45.966;13.632;2024-01-30T07:56:23;102530.03;;;13.04;57.27
31121;BME280;17770;45.966;13.632;2024-01-30T07:58:49;102529.16;;;13.04;57.58
31121;BME280;17770;45.966;13.632;2024-01-30T08:01:15;102531.75;;;13.04;57.62
31121;BME280;17770;45.966;13.632;2024-01-30T08:03:41;102536.97;;;13.05;57.28
31121;BME280;17770;45.966;13.632;2024-01-30T08:06:07;102535.22;;;13.04;57.74
31121;BME280;17770;45.966;13.632;2024-01-30T08:08:33;102536.94;;;13.04;57.96
31121;BME280;17770;45.966;13.632;2024-01-30T08:10:59;102535.22;;;13.03;57.46
31121;BME280;17770;45.966;13.632;2024-01-30T08:13:25;102536.09;;;13.03;57.89
31121;BME280;17770;45.966;13.632;2024-01-30T08:15:50;102530.91;;;13.03;57.88
31121;BME280;17770;45.966;13.632;2024-01-30T08:18:16;102536.94;;;13.04;57.38
31121;BME280;17770;45.966;13.632;2024-01-30T08:20:44;102540.41;;;13.03;57.71
31121;BME280;17770;45.966;13.632;2024-01-30T08:23:10;102536.97;;;13.05;58.15
31121;BME280;17770;45.966;13.632;2024-01-30T08:25:36;102534.38;;;13.05;58.25
31121;BME280;17770;45.966;13.632;2024-01-30T08:28:02;102542.13;;;13.04;57.86
31121;BME280;17770;45.966;13.632;2024-01-30T08:30:28;102539.56;;;13.05;57.76
31121;BME280;17770;45.966;13.632;2024-01-30T08:32:54;102534.34;;;13.04;58.49
31121;BME280;17770;45.966;13.632;2024-01-30T08:35:20;102540.41;;;13.04;57.27
31121;BME280;17770;45.966;13.632;2024-01-30T08:37:46;102529.16;;;13.04;57.51
31121;BME280;17770;45.966;13.632;2024-01-30T08:40:11;102530.91;;;13.03;57.96
31121;BME280;17770;45.966;13.632;2024-01-30T08:42:37;102530.91;;;13.03;57.56
31121;BME280;17770;45.966;13.632;2024-01-30T08:45:04;102530.03;;;13.03;58.01
31121;BME280;17770;45.966;13.632;2024-01-30T08:47:30;102524.00;;;13.02;57.66
31121;BME280;17770;45.966;13.632;2024-01-30T08:49:56;102532.63;;;13.03;57.90
31121;BME280;17770;45.966;13.632;2024-01-30T08:52:22;102524.88;;;13.03;57.41
31121;BME280;17770;45.966;13.632;2024-01-30T08:54:48;102524.88;;;13.03;57.98
31121;BME280;17770;45.966;13.632;2024-01-30T08:57:14;102527.47;;;13.03;58.23
31121;BME280;17770;45.966;13.632;2024-01-30T08:59:40;102528.34;;;13.03;57.71
31121;BME280;17770;45.966;13.632;2024-01-30T09:02:06;102528.34;;;13.02;58.33
31121;BME280;17770;45.966;13.632;2024-01-30T09:04:32;102528.34;;;13.02;57.72
31121;BME280;17770;45.966;13.632;2024-01-30T09:06:57;102525.75;;;13.02;57.52
31121;BME280;17770;45.966;13.632;2024-01-30T09:09:23;102522.28;;;13.01;58.01
31121;BME280;17770;45.966;13.632;2024-01-30T09:11:49;102520.56;;;13.02;58.26
31121;BME280;17770;45.966;13.632;2024-01-30T09:14:15;102528.34;;;13.02;57.73
31121;BME280;17770;45.966;13.632;2024-01-30T09:16:41;102527.47;;;13.01;57.35
31121;BME280;17770;45.966;13.632;2024-01-30T09:19:07;102525.75;;;13.02;58.14
31121;BME280;17770;45.966;13.632;2024-01-30T09:21:33;102523.16;;;13.02;57.88
31121;BME280;17770;45.966;13.632;2024-01-30T09:24:02;102530.03;;;13.00;57.53
31121;BME280;17770;45.966;13.632;2024-01-30T09:26:31;102529.19;;;13.02;57.97
31121;BME280;17770;45.966;13.632;2024-01-30T09:28:57;102530.94;;;13.02;57.90
31121;BME280;17770;45.966;13.632;2024-01-30T09:31:22;102533.50;;;13.00;57.60
31121;BME280;17770;45.966;13.632;2024-01-30T09:33:48;102528.34;;;13.02;57.77
31121;BME280;17770;45.966;13.632;2024-01-30T09:36:16;102530.94;;;13.02;57.76
31121;BME280;17770;45.966;13.632;2024-01-30T09:38:44;102528.34;;;13.02;57.96
31121;BME280;17770;45.966;13.632;2024-01-30T09:41:10;102524.88;;;13.01;57.92
31121;BME280;17770;45.966;13.632;2024-01-30T09:43:37;102523.16;;;13.02;57.29
31121;BME280;17770;45.966;13.632;2024-01-30T09:46:03;102530.91;;;13.03;57.67
31121;BME280;17770;45.966;13.632;2024-01-30T09:48:31;102529.19;;;13.01;58.13
31121;BME280;17770;45.966;13.632;2024-01-30T09:50:57;102525.75;;;13.02;57.23
31121;BME280;17770;45.966;13.632;2024-01-30T09:53:23;102530.94;;;13.02;57.65
31121;BME280;17770;45.966;13.632;2024-01-30T09:55:50;102530.03;;;13.03;57.54
31121;BME280;17770;45.966;13.632;2024-01-30T09:58:16;102524.00;;;13.01;58.06
31121;BME280;17770;45.966;13.632;2024-01-30T10:00:42;102527.47;;;13.01;57.92
31121;BME280;17770;45.966;13.632;2024-01-30T10:03:08;102530.06;;;13.01;57.86
31121;BME280;17770;45.966;13.632;2024-01-30T10:05:35;102530.06;;;13.01;57.48
31121;BME280;17770;45.966;13.632;2024-01-30T10:08:05;102535.25;;;13.01;57.91
31121;BME280;17770;45.966;13.632;2024-01-30T10:10:31;102528.31;;;13.00;57.84
31121;BME280;17770;45.966;13.632;2024-01-30T10:12:57;102524.00;;;13.01;57.15
31121;BME280;17770;45.966;13.632;2024-01-30T10:15:23;102517.09;;;13.01;58.18
31121;BME280;17770;45.966;13.632;2024-01-30T10:17:49;102521.41;;;13.02;57.80
31121;BME280;17770;45.966;13.632;2024-01-30T10:20:15;102520.56;;;13.02;57.68
31121;BME280;17770;45.966;13.632;2024-01-30T10:22:41;102517.97;;;13.02;57.16
31121;BME280;17770;45.966;13.632;2024-01-30T10:25:10;102517.97;;;13.02;57.76
31121;BME280;17770;45.966;13.632;2024-01-30T10:27:36;102517.97;;;13.02;58.00
31121;BME280;17770;45.966;13.632;2024-01-30T10:30:02;102505.88;;;13.01;57.07
31121;BME280;17770;45.966;13.632;2024-01-30T10:32:29;102505.03;;;13.02;57.61
31121;BME280;17770;45.966;13.632;2024-01-30T10:34:55;102501.53;;;13.00;57.93
31121;BME280;17770;45.966;13.632;2024-01-30T10:37:21;102496.38;;;13.00;57.81
31121;BME280;17770;45.966;13.632;2024-01-30T10:39:50;102495.50;;;13.02;57.93
31121;BME280;17770;45.966;13.632;2024-01-30T10:42:18;102494.66;;;13.02;58.12
31121;BME280;17770;45.966;13.632;2024-01-30T10:44:56;102486.00;;;13.00;58.00
31121;BME280;17770;45.966;13.632;2024-01-30T10:47:29;102484.28;;;13.00;57.46
31121;BME280;17770;45.966;13.632;2024-01-30T10:49:55;102484.25;;;12.99;57.73
31121;BME280;17770;45.966;13.632;2024-01-30T10:52:22;102473.06;;;12.98;58.14
31121;BME280;17770;45.966;13.632;2024-01-30T10:54:48;102480.81;;;13.00;57.26
31121;BME280;17770;45.966;13.632;2024-01-30T10:57:15;102474.78;;;12.99;58.10
31121;BME280;17770;45.966;13.632;2024-01-30T10:59:42;102478.25;;;12.98;57.87
31121;BME280;17770;45.966;13.632;2024-01-30T11:02:08;102470.47;;;12.98;57.45
31121;BME280;17770;45.966;13.632;2024-01-30T11:04:39;102473.06;;;12.98;57.84
31121;BME280;17770;45.966;13.632;2024-01-30T11:07:23;102467.03;;;12.96;57.71
31121;BME280;17770;45.966;13.632;2024-01-30T11:09:50;102460.13;;;12.97;58.22
31121;BME280;17770;45.966;13.632;2024-01-30T11:12:16;102468.75;;;12.97;57.57
31121;BME280;17770;45.966;13.632;2024-01-30T11:14:42;102462.72;;;12.98;57.32
31121;BME280;17770;45.966;13.632;2024-01-30T11:17:09;102457.53;;;12.97;58.15
31121;BME280;17770;45.966;13.632;2024-01-30T11:19:38;102459.25;;;12.96;58.30
31121;BME280;17770;45.966;13.632;2024-01-30T11:22:06;102444.59;;;12.97;57.74
31121;BME280;17770;45.966;13.632;2024-01-30T11:24:36;102448.91;;;12.96;58.24
31121;BME280;17770;45.966;13.632;2024-01-30T11:27:07;102448.03;;;12.96;57.55
31121;BME280;17770;45.966;13.632;2024-01-30T11:29:33;102437.69;;;12.96;58.01
31121;BME280;17770;45.966;13.632;2024-01-30T11:32:00;102435.94;;;12.96;57.53
31121;BME280;17770;45.966;13.632;2024-01-30T11:34:26;102436.81;;;12.97;58.33
31121;BME280;17770;45.966;13.632;2024-01-30T11:36:52;102427.31;;;12.97;57.74
31121;BME280;17770;45.966;13.632;2024-01-30T11:39:20;102435.09;;;12.96;58.44
31121;BME280;17770;45.966;13.632;2024-01-30T11:41:48;102425.59;;;12.95;57.65
31121;BME280;17770;45.966;13.632;2024-01-30T11:44:16;102422.13;;;12.96;57.78
31121;BME280;17770;45.966;13.632;2024-01-30T11:46:41;102425.59;;;12.95;58.28
31121;BME280;17770;45.966;13.632;2024-01-30T11:49:07;102415.25;;;12.95;58.35
31121;BME280;17770;45.966;13.632;2024-01-30T11:51:33;102413.53;;;12.94;58.68
31121;BME280;17770;45.966;13.632;2024-01-30T11:53:59;102413.50;;;12.98;58.37
31121;BME280;17770;45.966;13.632;2024-01-30T11:56:25;102411.75;;;12.99;58.25
31121;BME280;17770;45.966;13.632;2024-01-30T11:58:52;102410.91;;;12.98;58.73
31121;BME280;17770;45.966;13.632;2024-01-30T12:01:18;102403.16;;;12.97;58.09
31121;BME280;17770;45.966;13.632;2024-01-30T12:03:50;102401.41;;;12.96;58.55
31121;BME280;17770;45.966;13.632;2024-01-30T12:06:16;102402.28;;;12.98;58.92
31121;BME280;17770;45.966;13.632;2024-01-30T12:08:42;102398.81;;;12.97;58.39
31121;BME280;17770;45.966;13.632;2024-01-30T12:11:08;102395.38;;;12.97;59.13
31121;BME280;17770;45.966;13.632;2024-01-30T12:13:34;102397.97;;;12.98;59.30
31121;BME280;17770;45.966;13.632;2024-01-30T12:16:00;102391.03;;;12.99;58.99
31121;BME280;17770;45.966;13.632;2024-01-30T12:18:26;102384.16;;;12.98;59.40
31121;BME280;17770;45.966;13.632;2024-01-30T12:20:59;102383.28;;;12.97;59.07
31121;BME280;17770;45.966;13.632;2024-01-30T12:23:29;102378.97;;;12.99;59.01
31121;BME280;17770;45.966;13.632;2024-01-30T12:25:55;102382.41;;;13.00;59.09
31121;BME280;17770;45.966;13.632;2024-01-30T12:28:21;102375.50;;;13.00;59.42
31121;BME280;17770;45.966;13.632;2024-01-30T12:30:48;102373.78;;;13.01;59.24
31121;BME280;17770;45.966;13.632;2024-01-30T12:33:16;102371.22;;;13.01;58.94
31121;BME280;17770;45.966;13.632;2024-01-30T12:35:46;102366.03;;;13.01;59.23